createdAt,value
2018-06-12T00:01:11.742Z,84.35
2018-06-12T00:03:41.205Z,84.60
2018-06-12T00:19:05.557Z,84.74
2018-06-12T00:21:35.470Z,84.88
2018-06-12T00:24:05.529Z,84.11
2018-06-12T00:26:35.420Z,84.37
2018-06-12T00:29:05.742Z,84.59
2018-06-12T00:31:35.802Z,84.47
2018-06-12T00:34:05.889Z,83.88
2018-06-12T00:36:35.696Z,84.12
2018-06-12T00:39:07.989Z,84.86
2018-06-12T00:41:37.905Z,84.58
2018-06-12T00:44:07.587Z,83.09
2018-06-12T00:46:37.350Z,83.51
2018-06-12T00:49:07.120Z,82.66
2018-06-12T00:51:36.960Z,83.22
2018-06-12T00:54:06.730Z,82.72
2018-06-12T00:56:47.622Z,82.89
2018-06-12T00:59:17.112Z,83.17
2018-06-12T01:01:47.335Z,82.77
2018-06-12T01:04:16.780Z,82.16
2018-06-12T01:06:46.526Z,82.15
2018-06-12T01:09:16.263Z,81.99
2018-06-12T01:11:45.957Z,81.85
2018-06-12T01:14:15.827Z,80.63
2018-06-12T01:16:45.519Z,81.49
2018-06-12T01:19:16.103Z,82.01
2018-06-12T01:21:45.523Z,81.74
2018-06-12T01:24:15.815Z,81.66
2018-06-12T01:26:46.162Z,80.67
2018-06-12T01:29:15.883Z,81.62
2018-06-12T01:31:45.669Z,81.42
2018-06-12T01:34:15.299Z,81.30
2018-06-12T01:36:44.958Z,80.91
2018-06-12T01:39:14.749Z,81.38
2018-06-12T01:41:44.570Z,81.00
2018-06-12T01:44:14.519Z,81.08
2018-06-12T01:46:44.011Z,80.72
2018-06-12T01:49:13.808Z,80.88
2018-06-12T01:51:43.611Z,81.19
2018-06-12T01:54:13.054Z,81.30
2018-06-12T01:56:42.804Z,81.49
2018-06-12T01:59:12.491Z,81.64
2018-06-12T02:01:42.300Z,81.72
2018-06-12T02:04:12.020Z,81.51
2018-06-12T02:06:41.916Z,82.18
2018-06-12T02:09:11.869Z,82.61
2018-06-12T02:11:41.575Z,82.36
2018-06-12T02:14:11.262Z,82.51
2018-06-12T02:16:41.011Z,82.40
2018-06-12T02:19:10.865Z,82.53
2018-06-12T02:21:40.751Z,82.93
2018-06-12T02:24:10.533Z,82.67
2018-06-12T02:26:40.232Z,83.50
2018-06-12T02:29:09.970Z,83.69
2018-06-12T02:31:39.542Z,83.67
2018-06-12T02:34:09.334Z,83.77
2018-06-12T02:36:39.092Z,84.07
2018-06-12T02:39:09.111Z,84.87
2018-06-12T02:41:38.703Z,84.37
2018-06-12T02:44:08.394Z,84.68
2018-06-12T02:46:38.308Z,85.55
2018-06-12T02:49:07.998Z,85.56
2018-06-12T02:51:37.811Z,86.52
2018-06-12T02:54:07.298Z,87.34
2018-06-12T02:56:36.895Z,88.42
2018-06-12T02:59:06.658Z,89.72
2018-06-12T03:01:36.419Z,89.23
2018-06-12T03:04:05.877Z,88.55
2018-06-12T03:06:35.644Z,88.60
2018-06-12T03:09:08.574Z,89.00
2018-06-12T03:11:38.142Z,89.19
2018-06-12T03:14:07.824Z,89.41
2018-06-12T03:16:37.745Z,89.94
2018-06-12T03:19:07.593Z,90.89
2018-06-12T03:21:37.361Z,91.21
2018-06-12T03:24:07.459Z,89.16
2018-06-12T03:26:37.218Z,87.87
2018-06-12T03:29:06.923Z,87.94
2018-06-12T03:31:36.704Z,87.39
2018-06-12T03:34:06.591Z,87.72
2018-06-12T03:36:36.293Z,88.27
2018-06-12T03:39:07.747Z,89.00
2018-06-12T03:41:37.441Z,90.60
2018-06-12T03:44:07.191Z,91.88
2018-06-12T03:46:36.958Z,92.69
2018-06-12T03:49:06.723Z,92.63
2018-06-12T03:51:36.480Z,93.32
2018-06-12T03:54:06.180Z,92.70
2018-06-12T03:56:35.879Z,93.98
2018-06-12T03:59:05.841Z,95.40
2018-06-12T04:01:35.790Z,95.29
2018-06-12T04:04:05.499Z,95.50
2018-06-12T04:06:37.487Z,96.05
2018-06-12T04:09:08.634Z,96.90
2018-06-12T04:11:38.378Z,97.15
2018-06-12T04:14:08.108Z,96.73
2018-06-12T04:16:38.019Z,95.91
2018-06-12T04:19:08.203Z,95.29
2018-06-12T04:21:44.057Z,94.37
2018-06-12T04:24:13.875Z,95.28
2018-06-12T04:26:43.279Z,95.05
2018-06-12T04:29:13.196Z,94.76
2018-06-12T04:31:42.890Z,94.38
2018-06-12T04:34:12.733Z,94.29
2018-06-12T04:36:42.428Z,93.69
2018-06-12T04:39:12.244Z,94.78
2018-06-12T04:41:41.715Z,95.11
2018-06-12T04:44:11.509Z,94.30
2018-06-12T04:46:41.522Z,93.36
2018-06-12T04:49:11.221Z,92.72
2018-06-12T04:51:40.948Z,92.97
2018-06-12T04:54:10.380Z,92.05
2018-06-12T04:56:40.090Z,90.65
2018-06-12T04:59:09.612Z,90.90
2018-06-12T05:01:39.902Z,89.82
2018-06-12T05:04:09.604Z,90.39
2018-06-12T05:06:39.602Z,90.32
2018-06-12T05:09:09.392Z,90.17
2018-06-12T05:11:39.106Z,90.95
2018-06-12T05:14:08.667Z,89.24
2018-06-12T05:16:38.776Z,90.17
2018-06-12T05:19:08.631Z,90.93
2018-06-12T05:21:38.475Z,90.47
2018-06-12T05:24:07.973Z,90.82
2018-06-12T05:26:37.799Z,90.25
2018-06-12T05:29:07.327Z,88.00
2018-06-12T05:31:37.210Z,88.50
2018-06-12T05:34:06.974Z,87.91
2018-06-12T05:36:36.774Z,87.36
2018-06-12T05:39:09.707Z,86.33
2018-06-12T05:41:40.000Z,86.32
2018-06-12T05:44:09.741Z,85.18
2018-06-12T05:46:39.565Z,85.43
2018-06-12T05:49:09.310Z,85.91
2018-06-12T05:51:38.836Z,85.47
2018-06-12T05:54:08.808Z,84.50
2018-06-12T05:56:38.660Z,84.50
2018-06-12T05:59:08.488Z,85.07
2018-06-12T06:01:38.318Z,83.90
2018-06-12T06:04:07.940Z,84.39
2018-06-12T06:06:37.692Z,84.86
2018-06-12T06:09:08.399Z,84.63
2018-06-12T06:11:37.980Z,82.82
2018-06-12T06:14:07.854Z,82.71
2018-06-12T06:16:37.842Z,82.42
2018-06-12T06:19:07.556Z,83.40
2018-06-12T06:21:37.333Z,83.30
2018-06-12T06:24:07.235Z,83.10
2018-06-12T06:26:37.006Z,83.80
2018-06-12T06:29:07.095Z,83.63
2018-06-12T06:31:36.951Z,85.87
2018-06-12T06:34:07.440Z,86.23
2018-06-12T06:36:36.983Z,84.85
2018-06-12T06:39:08.254Z,85.20
2018-06-12T06:41:38.027Z,86.41
2018-06-12T06:44:07.828Z,88.08
2018-06-12T06:46:37.571Z,87.67
2018-06-12T06:49:07.408Z,87.46
2018-06-12T06:51:37.460Z,84.99
2018-06-12T06:54:07.289Z,85.72
2018-06-12T06:56:37.043Z,85.94
2018-06-12T06:59:06.819Z,83.04
2018-06-12T07:01:40.922Z,82.88
2018-06-12T07:04:10.706Z,82.62
2018-06-12T07:06:40.491Z,84.20
2018-06-12T07:09:10.216Z,84.59
2018-06-12T07:11:40.015Z,82.60
2018-06-12T07:14:09.729Z,82.11
2018-06-12T07:16:39.583Z,80.90
2018-06-12T07:19:09.358Z,83.42
2018-06-12T07:21:38.774Z,83.13
2018-06-12T07:24:08.486Z,84.60
2018-06-12T07:26:37.995Z,84.95
2018-06-12T07:29:07.750Z,83.53
2018-06-12T07:31:37.954Z,81.22
2018-06-12T07:34:07.458Z,81.48
2018-06-12T07:36:37.177Z,81.42
2018-06-12T07:39:08.786Z,81.25
2018-06-12T07:41:38.607Z,77.89
2018-06-12T07:44:08.351Z,78.90
2018-06-12T07:46:38.059Z,75.58
2018-06-12T07:49:08.113Z,74.09
2018-06-12T07:51:37.806Z,73.30
2018-06-12T07:54:07.596Z,73.60
2018-06-12T07:56:37.553Z,70.97
2018-06-12T07:59:07.296Z,73.35
2018-06-12T08:01:37.030Z,71.88
2018-06-12T08:04:06.785Z,70.80
2018-06-12T08:06:36.476Z,72.55
2018-06-12T08:09:07.882Z,71.96
2018-06-12T08:11:37.690Z,73.80
2018-06-12T08:14:07.370Z,71.98
2018-06-12T08:16:37.108Z,72.11
2018-06-12T08:19:06.821Z,69.94
2018-06-12T08:21:36.703Z,68.87
2018-06-12T08:24:06.476Z,67.20
2018-06-12T08:26:36.185Z,70.84
2018-06-12T08:29:06.098Z,72.47
2018-06-12T08:31:35.982Z,65.57
2018-06-12T08:34:05.906Z,69.40
2018-06-12T08:36:35.654Z,68.16
2018-06-12T08:39:07.382Z,64.43
2018-06-12T08:41:37.255Z,65.40
2018-06-12T08:44:07.028Z,65.35
2018-06-12T08:46:36.746Z,66.54
2018-06-12T08:49:06.981Z,64.80
2018-06-12T08:51:37.273Z,58.06
2018-06-12T08:54:07.682Z,53.75
2018-06-12T08:56:38.356Z,46.53
2018-06-12T08:59:08.839Z,46.85
2018-06-12T09:01:39.158Z,43.35
2018-06-12T09:04:09.620Z,40.06
2018-06-12T09:06:40.007Z,38.76
2018-06-12T09:09:10.337Z,39.54
2018-06-12T09:11:40.627Z,38.71
2018-06-12T09:14:11.267Z,39.88
2018-06-12T09:16:41.625Z,41.29
2018-06-12T09:19:12.259Z,41.30
2018-06-12T09:21:42.583Z,39.63
2018-06-12T09:24:12.953Z,42.84
2018-06-12T09:26:43.231Z,40.28
2018-06-12T09:29:13.607Z,41.59
2018-06-12T09:31:44.427Z,41.47
2018-06-12T09:34:14.763Z,39.96
2018-06-12T09:36:45.034Z,42.78
2018-06-12T09:39:15.423Z,43.52
2018-06-12T09:41:45.718Z,45.19
2018-06-12T09:44:16.028Z,39.77
2018-06-12T09:46:46.298Z,39.67
2018-06-12T09:49:17.261Z,42.34
2018-06-12T09:51:47.555Z,42.06
2018-06-12T09:54:17.872Z,43.15
2018-06-12T09:56:48.166Z,43.84
2018-06-12T09:59:18.473Z,43.09
2018-06-12T10:01:49.700Z,43.96
2018-06-12T10:04:20.593Z,44.70
2018-06-12T10:06:50.980Z,45.24
2018-06-12T10:09:21.064Z,43.89
2018-06-12T10:11:51.368Z,43.38
2018-06-12T10:14:22.416Z,41.71
2018-06-12T10:16:52.869Z,40.96
2018-06-12T10:19:23.417Z,40.52
2018-06-12T10:21:54.888Z,40.63
2018-06-12T10:24:25.222Z,39.94
2018-06-12T10:26:55.469Z,41.94
2018-06-12T10:29:25.747Z,42.60
2018-06-12T10:31:56.122Z,43.65
2018-06-12T10:34:26.516Z,43.69
2018-06-12T10:36:58.587Z,43.18
2018-06-12T10:39:28.984Z,41.27
2018-06-12T10:41:59.525Z,41.23
2018-06-12T10:44:29.816Z,39.45
2018-06-12T10:47:00.485Z,38.39
2018-06-12T10:49:30.755Z,37.38
2018-06-12T10:52:01.176Z,40.18
2018-06-12T10:54:31.557Z,39.61
2018-06-12T10:57:02.500Z,41.44
2018-06-12T10:59:32.839Z,39.41
2018-06-12T11:02:03.158Z,41.14
2018-06-12T11:04:33.973Z,42.06
2018-06-12T11:07:04.415Z,43.79
2018-06-12T11:09:34.779Z,41.96
2018-06-12T11:12:05.091Z,42.77
2018-06-12T11:14:36.079Z,41.95
2018-06-12T11:17:06.816Z,40.11
2018-06-12T11:19:37.203Z,40.66
2018-06-12T11:22:07.588Z,39.47
2018-06-12T11:24:37.947Z,39.02
2018-06-12T11:27:08.376Z,39.93
2018-06-12T11:29:38.837Z,39.72
2018-06-12T11:32:09.191Z,38.87
2018-06-12T11:34:39.585Z,38.17
2018-06-12T11:37:09.950Z,40.51
2018-06-12T11:39:40.263Z,40.48
2018-06-12T11:42:10.546Z,40.05
2018-06-12T11:44:40.808Z,39.19
2018-06-12T11:47:17.798Z,41.20
2018-06-12T11:49:48.187Z,42.26
2018-06-12T11:52:18.595Z,42.06
2018-06-12T11:54:48.962Z,44.79
2018-06-12T11:57:19.490Z,44.54
2018-06-12T11:59:49.828Z,44.70
2018-06-12T12:02:20.150Z,42.59
2018-06-12T12:04:50.654Z,44.30
2018-06-12T12:07:20.676Z,44.90
2018-06-12T12:09:51.778Z,45.09
2018-06-12T12:12:22.171Z,45.37
2018-06-12T12:14:52.714Z,41.30
2018-06-12T12:17:23.028Z,43.59
2018-06-12T12:19:53.366Z,39.69
2018-06-12T12:22:23.822Z,39.70
2018-06-12T12:24:54.231Z,39.88
2018-06-12T12:27:24.642Z,42.22
2018-06-12T12:29:55.031Z,42.42
2018-06-12T12:32:25.438Z,39.96
2018-06-12T12:34:55.967Z,41.41
2018-06-12T12:37:26.217Z,40.10
2018-06-12T12:39:57.096Z,40.36
2018-06-12T12:42:27.528Z,41.31
2018-06-12T12:44:58.398Z,41.31
2018-06-12T12:47:28.854Z,39.98
2018-06-12T12:49:59.146Z,40.79
2018-06-12T12:52:29.465Z,41.14
2018-06-12T12:54:59.817Z,41.88
2018-06-12T12:57:30.110Z,41.66
2018-06-12T13:00:00.602Z,42.55
2018-06-12T13:02:31.143Z,41.85
2018-06-12T13:05:01.512Z,44.24
2018-06-12T13:07:31.987Z,44.77
2018-06-12T13:10:02.245Z,45.19
2018-06-12T13:12:32.555Z,45.82
2018-06-12T13:15:02.891Z,45.22
2018-06-12T13:17:33.146Z,44.04
2018-06-12T13:20:04.017Z,44.96
2018-06-12T13:22:34.346Z,45.33
2018-06-12T13:25:04.133Z,45.16
2018-06-12T13:27:33.826Z,43.47
2018-06-12T13:30:03.605Z,44.50
2018-06-12T13:32:33.906Z,46.64
2018-06-12T13:35:03.644Z,44.59
2018-06-12T13:37:33.575Z,45.63
2018-06-12T13:40:03.258Z,46.47
2018-06-12T13:42:32.921Z,44.31
2018-06-12T13:45:02.808Z,44.89
2018-06-12T13:47:32.609Z,44.95
2018-06-12T13:50:03.106Z,42.63
2018-06-12T13:52:33.395Z,44.32
2018-06-12T13:55:03.678Z,44.48
2018-06-12T13:57:33.422Z,43.42
2018-06-12T14:00:03.448Z,41.85
2018-06-12T14:02:33.305Z,42.78
2018-06-12T14:05:03.559Z,43.23
2018-06-12T14:07:33.951Z,43.25
2018-06-12T14:10:04.311Z,44.47
2018-06-12T14:12:34.568Z,45.06
2018-06-12T14:15:05.244Z,43.23
2018-06-12T14:17:35.524Z,43.55
2018-06-12T14:20:06.012Z,44.44
2018-06-12T14:22:36.404Z,43.27
2018-06-12T14:25:06.285Z,42.31
2018-06-12T14:27:36.163Z,43.27
2018-06-12T14:30:06.444Z,42.72
2018-06-12T14:32:36.819Z,43.63
2018-06-12T14:35:06.604Z,41.94
2018-06-12T14:37:36.384Z,42.04
2018-06-12T14:40:06.450Z,42.76
2018-06-12T14:42:36.266Z,44.22
2018-06-12T14:45:06.299Z,42.08
2018-06-12T14:47:36.864Z,41.64
2018-06-12T14:50:07.183Z,43.02
2018-06-12T14:52:36.967Z,42.92
2018-06-12T14:55:06.691Z,43.10
2018-06-12T14:57:36.482Z,43.23
2018-06-12T15:00:06.008Z,43.86
2018-06-12T15:02:35.754Z,43.47
2018-06-12T15:05:05.937Z,42.17
2018-06-12T15:07:36.390Z,43.03
2018-06-12T15:10:06.499Z,43.90
2018-06-12T15:12:36.905Z,42.95
2018-06-12T15:15:07.217Z,42.47
2018-06-12T15:17:37.005Z,41.88
2018-06-12T15:20:07.640Z,42.33
2018-06-12T15:22:38.044Z,40.85
2018-06-12T15:25:08.507Z,42.04
2018-06-12T15:27:38.982Z,42.88
2018-06-12T15:30:09.320Z,43.09
2018-06-12T15:32:39.667Z,42.40
2018-06-12T15:35:10.841Z,41.83
2018-06-12T15:37:41.140Z,41.21
2018-06-12T15:40:11.526Z,43.68
2018-06-12T15:42:41.881Z,42.85
2018-06-12T15:45:12.334Z,43.17
2018-06-12T15:47:42.805Z,43.87
2018-06-12T15:50:13.794Z,42.97
2018-06-12T15:52:44.110Z,44.67
2018-06-12T15:55:14.494Z,43.25
2018-06-12T15:57:44.264Z,43.33
2018-06-12T16:00:14.036Z,42.97
2018-06-12T16:02:43.886Z,44.08
2018-06-12T16:05:13.637Z,44.28
2018-06-12T16:07:43.436Z,43.13
2018-06-12T16:10:14.100Z,43.32
2018-06-12T16:12:43.899Z,43.39
2018-06-12T16:15:14.107Z,43.28
2018-06-12T16:17:43.946Z,45.08
2018-06-12T16:20:14.727Z,43.31
2018-06-12T16:22:44.497Z,43.60
2018-06-12T16:25:14.315Z,45.05
2018-06-12T16:27:44.211Z,44.20
2018-06-12T16:30:14.600Z,43.54
2018-06-12T16:32:44.363Z,43.27
2018-06-12T16:35:14.084Z,44.46
2018-06-12T16:37:43.800Z,44.72
2018-06-12T16:40:13.701Z,45.50
2018-06-12T16:42:43.467Z,45.42
2018-06-12T16:45:13.305Z,47.19
2018-06-12T16:47:43.041Z,47.45
2018-06-12T16:50:12.776Z,46.56
2018-06-12T16:52:42.593Z,46.72
2018-06-12T16:55:12.330Z,45.05
2018-06-12T16:57:42.136Z,46.35
2018-06-12T17:00:11.862Z,47.42
2018-06-12T17:02:41.673Z,46.63
2018-06-12T17:05:11.395Z,46.50
2018-06-12T17:07:41.903Z,46.57
2018-06-12T17:10:11.811Z,46.06
2018-06-12T17:12:41.576Z,44.83
2018-06-12T17:15:11.343Z,44.42
2018-06-12T17:17:41.644Z,45.14
2018-06-12T17:20:11.332Z,45.40
2018-06-12T17:22:41.098Z,46.29
2018-06-12T17:25:11.243Z,47.53
2018-06-12T17:27:40.938Z,47.90
2018-06-12T17:30:10.907Z,47.33
2018-06-12T17:32:40.677Z,48.41
2018-06-12T17:35:10.366Z,49.57
2018-06-12T17:37:39.871Z,49.70
2018-06-12T17:40:09.607Z,49.86
2018-06-12T17:42:39.376Z,50.72
2018-06-12T17:45:09.130Z,51.59
2018-06-12T17:47:38.846Z,51.85
2018-06-12T17:50:09.166Z,53.23
2018-06-12T17:52:38.974Z,53.44
2018-06-12T17:55:09.739Z,52.88
2018-06-12T17:57:39.866Z,52.87
2018-06-12T18:00:09.566Z,52.89
2018-06-12T18:02:39.291Z,53.78
2018-06-12T18:05:09.108Z,54.50
2018-06-12T18:07:39.081Z,55.02
2018-06-12T18:10:08.757Z,54.95
2018-06-12T18:12:38.492Z,54.26
2018-06-12T18:15:08.248Z,55.20
2018-06-12T18:17:38.279Z,56.22
2018-06-12T18:20:07.970Z,57.69
2018-06-12T18:22:37.679Z,57.29
2018-06-12T18:25:08.251Z,57.40
2018-06-12T18:27:38.494Z,57.69
2018-06-12T18:30:08.234Z,58.63
2018-06-12T18:32:38.029Z,57.70
2018-06-12T18:35:08.148Z,57.65
2018-06-12T18:37:37.853Z,58.10
2018-06-12T18:40:07.721Z,59.26
2018-06-12T18:42:37.556Z,58.53
2018-06-12T18:45:07.343Z,58.99
2018-06-12T18:47:37.042Z,59.71
2018-06-12T18:50:06.855Z,60.48
2018-06-12T18:52:36.652Z,61.25
2018-06-12T18:55:06.535Z,61.56
2018-06-12T18:57:36.215Z,61.54
2018-06-12T19:00:06.316Z,60.44
2018-06-12T19:02:36.010Z,60.84
2018-06-12T19:05:05.806Z,61.15
2018-06-12T19:07:35.604Z,60.73
2018-06-12T19:10:05.366Z,60.92
2018-06-12T19:12:35.105Z,61.34
2018-06-12T19:15:05.348Z,61.76
2018-06-12T19:17:35.139Z,61.20
2018-06-12T19:20:04.919Z,60.87
2018-06-12T19:22:34.662Z,61.09
2018-06-12T19:25:04.984Z,61.90
2018-06-12T19:27:34.808Z,61.66
2018-06-12T19:30:05.904Z,62.50
2018-06-12T19:32:35.691Z,62.90
2018-06-12T19:35:05.499Z,63.02
2018-06-12T19:37:34.933Z,63.09
2018-06-12T19:40:04.812Z,63.39
2018-06-12T19:42:35.454Z,64.24
2018-06-12T19:45:05.588Z,64.62
2018-06-12T19:47:35.668Z,64.24
2018-06-12T19:50:05.857Z,64.90
2018-06-12T19:52:35.396Z,65.27
2018-06-12T19:55:05.183Z,66.01
2018-06-12T19:57:37.184Z,66.11
2018-06-12T20:00:07.095Z,66.93
2018-06-12T20:02:36.863Z,66.90
2018-06-12T20:05:06.723Z,67.28
2018-06-12T20:07:36.527Z,66.79
2018-06-12T20:10:06.264Z,67.15
2018-06-12T20:12:36.021Z,67.49
2018-06-12T20:15:05.978Z,67.19
2018-06-12T20:17:35.770Z,68.04
2018-06-12T20:20:05.560Z,67.18
2018-06-12T20:22:36.319Z,67.59
2018-06-12T20:25:06.287Z,67.81
2018-06-12T20:27:36.742Z,68.30
2018-06-12T20:30:06.474Z,68.63
2018-06-12T20:32:36.263Z,68.83
2018-06-12T20:35:06.442Z,70.05
2018-06-12T20:37:36.063Z,70.45
2018-06-12T20:40:05.964Z,70.50
2018-06-12T20:42:35.713Z,71.36
2018-06-12T20:45:05.705Z,72.58
2018-06-12T20:47:35.649Z,72.44
2018-06-12T20:50:06.462Z,73.31
2018-06-12T20:52:36.299Z,72.76
2018-06-12T20:55:06.742Z,73.05
2018-06-12T20:57:36.488Z,73.01
2018-06-12T21:00:06.280Z,73.85
2018-06-12T21:02:35.732Z,74.10
2018-06-12T21:05:06.110Z,74.34
2018-06-12T21:07:35.857Z,73.89
2018-06-12T21:10:05.879Z,74.83
2018-06-12T21:12:36.450Z,74.69
2018-06-12T21:15:06.195Z,75.56
2018-06-12T21:17:35.989Z,75.79
2018-06-12T21:20:05.727Z,76.00
2018-06-12T21:22:35.601Z,77.13
2018-06-12T21:25:05.623Z,77.18
2018-06-12T21:27:35.699Z,76.06
2018-06-12T21:30:05.492Z,76.14
2018-06-12T21:32:35.265Z,75.64
2018-06-12T21:35:05.039Z,75.28
2018-06-12T21:37:34.784Z,75.41
2018-06-12T21:40:04.308Z,75.60
2018-06-12T21:42:34.207Z,76.31
2018-06-12T21:45:04.348Z,76.90
2018-06-12T21:47:34.204Z,77.30
2018-06-12T21:50:03.980Z,76.41
2018-06-12T21:52:33.496Z,76.91
2018-06-12T21:55:03.365Z,76.73
2018-06-12T21:57:33.590Z,77.30
2018-06-12T22:00:03.366Z,78.17
2018-06-12T22:02:32.866Z,77.79
2018-06-12T22:05:02.476Z,77.73
2018-06-12T22:07:32.822Z,78.31
2018-06-12T22:10:02.711Z,78.76
2018-06-12T22:12:32.588Z,78.49
2018-06-12T22:15:02.343Z,79.14
2018-06-12T22:17:32.227Z,79.04
2018-06-12T22:20:01.998Z,79.83
2018-06-12T22:22:31.794Z,80.21
2018-06-12T22:25:01.246Z,80.39
2018-06-12T22:27:31.090Z,80.61
2018-06-12T22:30:00.847Z,80.75
2018-06-12T22:32:30.310Z,80.46
2018-06-12T22:35:00.050Z,81.63
2018-06-12T22:37:29.784Z,81.48
2018-06-12T22:39:59.590Z,81.34
2018-06-12T22:42:29.470Z,82.19
2018-06-12T22:44:59.298Z,81.91
2018-06-12T22:47:29.029Z,83.12
2018-06-12T22:49:58.875Z,82.88
2018-06-12T22:52:29.047Z,83.32
2018-06-12T22:54:58.783Z,83.09
2018-06-12T22:57:28.612Z,83.37
2018-06-12T22:59:58.341Z,83.07
2018-06-12T23:02:28.157Z,83.07
2018-06-12T23:04:57.645Z,83.44
2018-06-12T23:07:27.395Z,83.51
2018-06-12T23:09:57.185Z,83.71
2018-06-12T23:12:26.696Z,83.23
2018-06-12T23:14:56.469Z,82.98
2018-06-12T23:17:26.227Z,83.27
2018-06-12T23:20:07.300Z,83.31
2018-06-12T23:22:37.216Z,83.19
2018-06-12T23:25:06.725Z,83.40
2018-06-12T23:27:36.410Z,84.17
2018-06-12T23:30:06.134Z,83.52
2018-06-12T23:32:35.590Z,84.38
2018-06-12T23:35:05.444Z,84.24
2018-06-12T23:37:35.229Z,85.10
2018-06-12T23:40:04.927Z,84.50
2018-06-12T23:42:35.098Z,84.99
2018-06-12T23:45:04.888Z,85.03
2018-06-12T23:47:34.430Z,85.19
2018-06-12T23:50:04.175Z,84.24
2018-06-12T23:52:34.089Z,84.87
2018-06-12T23:55:03.834Z,84.46
2018-06-12T23:57:33.591Z,84.09
